sensor_id;sensor_type;location;lat;lon;timestamp;temperature;humidity
75738;DHT22;76754;45.638;13.764;2024-03-02T00:00:50;20.40;58.70
75738;DHT22;76754;45.638;13.764;2024-03-02T00:03:17;20.40;58.70
75738;DHT22;76754;45.638;13.764;2024-03-02T00:05:42;20.40;58.70
75738;DHT22;76754;45.638;13.764;2024-03-02T00:08:08;20.40;58.70
75738;DHT22;76754;45.638;13.764;2024-03-02T00:10:38;20.40;58.70
75738;DHT22;76754;45.638;13.764;2024-03-02T00:13:06;20.40;58.70
75738;DHT22;76754;45.638;13.764;2024-03-02T00:15:48;20.30;58.60
75738;DHT22;76754;45.638;13.764;2024-03-02T00:18:21;20.30;58.60
75738;DHT22;76754;45.638;13.764;2024-03-02T00:20:52;20.30;58.60
75738;DHT22;76754;45.638;13.764;2024-03-02T00:23:17;20.30;58.60
75738;DHT22;76754;45.638;13.764;2024-03-02T00:25:54;20.30;59.10
75738;DHT22;76754;45.638;13.764;2024-03-02T00:28:24;20.30;58.60
75738;DHT22;76754;45.638;13.764;2024-03-02T00:30:59;20.30;58.60
75738;DHT22;76754;45.638;13.764;2024-03-02T00:33:30;20.30;58.70
75738;DHT22;76754;45.638;13.764;2024-03-02T00:35:55;20.30;58.60
75738;DHT22;76754;45.638;13.764;2024-03-02T00:38:21;20.30;58.70
75738;DHT22;76754;45.638;13.764;2024-03-02T00:40:48;20.30;58.60
75738;DHT22;76754;45.638;13.764;2024-03-02T00:43:41;20.30;58.70
75738;DHT22;76754;45.638;13.764;2024-03-02T00:45:59;20.30;58.70
75738;DHT22;76754;45.638;13.764;2024-03-02T00:48:24;20.30;58.70
75738;DHT22;76754;45.638;13.764;2024-03-02T00:50:52;20.30;58.70
75738;DHT22;76754;45.638;13.764;2024-03-02T00:53:17;20.30;58.70
75738;DHT22;76754;45.638;13.764;2024-03-02T00:55:47;20.30;58.70
75738;DHT22;76754;45.638;13.764;2024-03-02T00:58:14;20.30;58.80
75738;DHT22;76754;45.638;13.764;2024-03-02T01:00:39;20.30;58.80
75738;DHT22;76754;45.638;13.764;2024-03-02T01:03:06;20.20;58.80
75738;DHT22;76754;45.638;13.764;2024-03-02T01:05:33;20.30;58.80
75738;DHT22;76754;45.638;13.764;2024-03-02T01:07:59;20.30;58.80
75738;DHT22;76754;45.638;13.764;2024-03-02T01:10:24;20.30;58.90
75738;DHT22;76754;45.638;13.764;2024-03-02T01:12:51;20.20;58.80
75738;DHT22;76754;45.638;13.764;2024-03-02T01:15:17;20.30;58.90
75738;DHT22;76754;45.638;13.764;2024-03-02T01:17:42;20.20;58.80
75738;DHT22;76754;45.638;13.764;2024-03-02T01:20:08;20.20;58.80
75738;DHT22;76754;45.638;13.764;2024-03-02T01:22:35;20.20;58.80
75738;DHT22;76754;45.638;13.764;2024-03-02T01:25:01;20.20;58.80
75738;DHT22;76754;45.638;13.764;2024-03-02T01:27:27;20.20;58.80
75738;DHT22;76754;45.638;13.764;2024-03-02T01:29:53;20.20;59.40
75738;DHT22;76754;45.638;13.764;2024-03-02T01:32:20;20.20;58.80
75738;DHT22;76754;45.638;13.764;2024-03-02T01:34:45;20.20;58.90
75738;DHT22;76754;45.638;13.764;2024-03-02T01:37:11;20.20;58.90
75738;DHT22;76754;45.638;13.764;2024-03-02T01:39:37;20.20;58.90
75738;DHT22;76754;45.638;13.764;2024-03-02T01:42:02;20.20;58.90
75738;DHT22;76754;45.638;13.764;2024-03-02T01:44:28;20.20;58.90
75738;DHT22;76754;45.638;13.764;2024-03-02T01:46:54;20.20;58.90
75738;DHT22;76754;45.638;13.764;2024-03-02T01:49:19;20.20;59.00
75738;DHT22;76754;45.638;13.764;2024-03-02T01:51:46;20.20;58.90
75738;DHT22;76754;45.638;13.764;2024-03-02T01:54:12;20.20;58.90
75738;DHT22;76754;45.638;13.764;2024-03-02T01:56:37;20.20;59.00
75738;DHT22;76754;45.638;13.764;2024-03-02T01:59:03;20.20;58.90
75738;DHT22;76754;45.638;13.764;2024-03-02T02:01:29;20.20;59.00
75738;DHT22;76754;45.638;13.764;2024-03-02T02:03:54;20.20;59.00
75738;DHT22;76754;45.638;13.764;2024-03-02T02:06:20;20.20;59.10
75738;DHT22;76754;45.638;13.764;2024-03-02T02:08:48;20.20;59.10
75738;DHT22;76754;45.638;13.764;2024-03-02T02:11:17;20.20;59.10
75738;DHT22;76754;45.638;13.764;2024-03-02T02:13:43;20.10;59.10
75738;DHT22;76754;45.638;13.764;2024-03-02T02:16:08;20.10;59.10
75738;DHT22;76754;45.638;13.764;2024-03-02T02:18:34;20.10;59.10
75738;DHT22;76754;45.638;13.764;2024-03-02T02:21:01;20.20;59.10
75738;DHT22;76754;45.638;13.764;2024-03-02T02:23:27;20.20;59.20
75738;DHT22;76754;45.638;13.764;2024-03-02T02:25:53;20.20;59.10
75738;DHT22;76754;45.638;13.764;2024-03-02T02:28:19;20.20;59.70
75738;DHT22;76754;45.638;13.764;2024-03-02T02:30:44;20.20;59.20
75738;DHT22;76754;45.638;13.764;2024-03-02T02:33:10;20.10;59.10
75738;DHT22;76754;45.638;13.764;2024-03-02T02:35:36;20.10;59.10
75738;DHT22;76754;45.638;13.764;2024-03-02T02:38:01;20.10;59.10
75738;DHT22;76754;45.638;13.764;2024-03-02T02:40:28;20.10;59.10
75738;DHT22;76754;45.638;13.764;2024-03-02T02:42:57;20.10;59.10
75738;DHT22;76754;45.638;13.764;2024-03-02T02:45:24;20.10;59.10
75738;DHT22;76754;45.638;13.764;2024-03-02T02:47:50;20.10;59.10
75738;DHT22;76754;45.638;13.764;2024-03-02T02:50:16;20.10;59.20
75738;DHT22;76754;45.638;13.764;2024-03-02T02:52:42;20.10;59.20
75738;DHT22;76754;45.638;13.764;2024-03-02T02:55:09;20.10;59.20
75738;DHT22;76754;45.638;13.764;2024-03-02T02:57:35;20.10;59.20
75738;DHT22;76754;45.638;13.764;2024-03-02T03:00:09;20.10;59.10
75738;DHT22;76754;45.638;13.764;2024-03-02T03:02:38;20.10;59.10
75738;DHT22;76754;45.638;13.764;2024-03-02T03:05:05;20.10;59.20
75738;DHT22;76754;45.638;13.764;2024-03-02T03:07:31;20.10;59.20
75738;DHT22;76754;45.638;13.764;2024-03-02T03:09:58;20.10;59.20
75738;DHT22;76754;45.638;13.764;2024-03-02T03:12:23;20.10;59.10
75738;DHT22;76754;45.638;13.764;2024-03-02T03:14:49;20.10;59.10
75738;DHT22;76754;45.638;13.764;2024-03-02T03:17:15;20.10;59.10
75738;DHT22;76754;45.638;13.764;2024-03-02T03:19:40;20.10;59.10
75738;DHT22;76754;45.638;13.764;2024-03-02T03:22:06;20.10;59.00
75738;DHT22;76754;45.638;13.764;2024-03-02T03:24:32;20.10;59.10
75738;DHT22;76754;45.638;13.764;2024-03-02T03:26:58;20.10;59.10
75738;DHT22;76754;45.638;13.764;2024-03-02T03:29:24;20.00;59.00
75738;DHT22;76754;45.638;13.764;2024-03-02T03:31:49;20.10;59.10
75738;DHT22;76754;45.638;13.764;2024-03-02T03:34:15;20.10;59.00
75738;DHT22;76754;45.638;13.764;2024-03-02T03:36:41;20.10;59.00
75738;DHT22;76754;45.638;13.764;2024-03-02T03:39:07;20.10;58.90
75738;DHT22;76754;45.638;13.764;2024-03-02T03:41:33;20.10;58.90
75738;DHT22;76754;45.638;13.764;2024-03-02T03:43:58;20.10;58.90
75738;DHT22;76754;45.638;13.764;2024-03-02T03:46:24;20.10;58.90
75738;DHT22;76754;45.638;13.764;2024-03-02T03:48:50;20.00;58.80
75738;DHT22;76754;45.638;13.764;2024-03-02T03:51:16;20.00;58.80
75738;DHT22;76754;45.638;13.764;2024-03-02T03:53:42;20.00;58.80
75738;DHT22;76754;45.638;13.764;2024-03-02T03:56:07;20.10;58.90
75738;DHT22;76754;45.638;13.764;2024-03-02T03:58:33;20.00;58.80
75738;DHT22;76754;45.638;13.764;2024-03-02T04:00:58;20.00;58.90
75738;DHT22;76754;45.638;13.764;2024-03-02T04:03:24;20.00;58.80
75738;DHT22;76754;45.638;13.764;2024-03-02T04:05:50;20.00;58.80
75738;DHT22;76754;45.638;13.764;2024-03-02T04:08:16;20.00;58.80
75738;DHT22;76754;45.638;13.764;2024-03-02T04:10:42;20.00;58.80
75738;DHT22;76754;45.638;13.764;2024-03-02T04:13:07;20.00;58.80
75738;DHT22;76754;45.638;13.764;2024-03-02T04:15:33;20.00;58.80
75738;DHT22;76754;45.638;13.764;2024-03-02T04:17:59;20.00;58.90
75738;DHT22;76754;45.638;13.764;2024-03-02T04:20:25;20.00;58.90
75738;DHT22;76754;45.638;13.764;2024-03-02T04:22:51;20.00;58.90
75738;DHT22;76754;45.638;13.764;2024-03-02T04:25:16;20.00;58.90
75738;DHT22;76754;45.638;13.764;2024-03-02T04:27:43;20.00;58.90
75738;DHT22;76754;45.638;13.764;2024-03-02T04:30:09;20.00;58.90
75738;DHT22;76754;45.638;13.764;2024-03-02T04:32:35;20.00;58.90
75738;DHT22;76754;45.638;13.764;2024-03-02T04:35:01;20.00;58.90
75738;DHT22;76754;45.638;13.764;2024-03-02T04:37:27;20.00;58.90
75738;DHT22;76754;45.638;13.764;2024-03-02T04:39:53;20.00;58.90
75738;DHT22;76754;45.638;13.764;2024-03-02T04:42:19;20.00;58.90
75738;DHT22;76754;45.638;13.764;2024-03-02T04:44:44;20.00;58.90
75738;DHT22;76754;45.638;13.764;2024-03-02T04:47:10;20.00;58.90
75738;DHT22;76754;45.638;13.764;2024-03-02T04:49:36;19.90;58.90
75738;DHT22;76754;45.638;13.764;2024-03-02T04:52:01;20.00;58.90
75738;DHT22;76754;45.638;13.764;2024-03-02T04:54:28;20.00;58.90
75738;DHT22;76754;45.638;13.764;2024-03-02T04:56:53;20.00;58.90
75738;DHT22;76754;45.638;13.764;2024-03-02T04:59:19;20.00;58.90
75738;DHT22;76754;45.638;13.764;2024-03-02T05:01:45;19.90;58.80
75738;DHT22;76754;45.638;13.764;2024-03-02T05:04:11;19.90;58.90
75738;DHT22;76754;45.638;13.764;2024-03-02T05:06:37;19.90;58.90
75738;DHT22;76754;45.638;13.764;2024-03-02T05:09:03;19.90;58.90
75738;DHT22;76754;45.638;13.764;2024-03-02T05:11:29;19.90;58.90
75738;DHT22;76754;45.638;13.764;2024-03-02T05:14:17;19.90;58.90
75738;DHT22;76754;45.638;13.764;2024-03-02T05:16:43;19.90;59.00
75738;DHT22;76754;45.638;13.764;2024-03-02T05:19:09;19.90;59.00
75738;DHT22;76754;45.638;13.764;2024-03-02T05:21:34;19.90;58.90
75738;DHT22;76754;45.638;13.764;2024-03-02T05:24:00;19.90;58.90
75738;DHT22;76754;45.638;13.764;2024-03-02T05:26:26;19.90;58.90
75738;DHT22;76754;45.638;13.764;2024-03-02T05:28:52;19.90;58.90
75738;DHT22;76754;45.638;13.764;2024-03-02T05:31:18;19.90;58.90
75738;DHT22;76754;45.638;13.764;2024-03-02T05:33:44;19.90;58.90
75738;DHT22;76754;45.638;13.764;2024-03-02T05:36:09;19.90;58.90
75738;DHT22;76754;45.638;13.764;2024-03-02T05:38:35;19.90;58.90
75738;DHT22;76754;45.638;13.764;2024-03-02T05:41:01;19.90;58.80
75738;DHT22;76754;45.638;13.764;2024-03-02T05:43:27;19.90;58.80
75738;DHT22;76754;45.638;13.764;2024-03-02T05:45:52;19.90;58.90
75738;DHT22;76754;45.638;13.764;2024-03-02T05:48:18;19.90;58.90
75738;DHT22;76754;45.638;13.764;2024-03-02T05:50:44;19.90;59.30
75738;DHT22;76754;45.638;13.764;2024-03-02T05:53:09;19.90;58.80
75738;DHT22;76754;45.638;13.764;2024-03-02T05:55:36;19.90;58.80
75738;DHT22;76754;45.638;13.764;2024-03-02T05:58:02;19.90;59.30
75738;DHT22;76754;45.638;13.764;2024-03-02T06:00:42;19.90;58.80
75738;DHT22;76754;45.638;13.764;2024-03-02T06:03:08;19.90;58.70
75738;DHT22;76754;45.638;13.764;2024-03-02T06:05:34;19.90;58.70
75738;DHT22;76754;45.638;13.764;2024-03-02T06:08:00;20.00;58.70
75738;DHT22;76754;45.638;13.764;2024-03-02T06:10:26;20.30;58.00
75738;DHT22;76754;45.638;13.764;2024-03-02T06:12:51;20.60;57.10
75738;DHT22;76754;45.638;13.764;2024-03-02T06:15:17;20.90;55.40
75738;DHT22;76754;45.638;13.764;2024-03-02T06:17:43;21.10;54.60
75738;DHT22;76754;45.638;13.764;2024-03-02T06:20:09;21.30;54.20
75738;DHT22;76754;45.638;13.764;2024-03-02T06:22:34;21.40;53.80
75738;DHT22;76754;45.638;13.764;2024-03-02T06:25:00;21.60;53.30
75738;DHT22;76754;45.638;13.764;2024-03-02T06:27:26;21.70;53.00
75738;DHT22;76754;45.638;13.764;2024-03-02T06:29:51;21.80;52.70
75738;DHT22;76754;45.638;13.764;2024-03-02T06:32:17;21.90;52.30
75738;DHT22;76754;45.638;13.764;2024-03-02T06:34:43;22.00;52.10
75738;DHT22;76754;45.638;13.764;2024-03-02T06:37:08;22.10;51.70
75738;DHT22;76754;45.638;13.764;2024-03-02T06:39:34;22.20;51.40
75738;DHT22;76754;45.638;13.764;2024-03-02T06:42:01;22.30;51.20
75738;DHT22;76754;45.638;13.764;2024-03-02T06:44:27;22.40;50.90
75738;DHT22;76754;45.638;13.764;2024-03-02T06:46:54;22.50;50.60
75738;DHT22;76754;45.638;13.764;2024-03-02T06:49:20;22.60;50.40
75738;DHT22;76754;45.638;13.764;2024-03-02T06:51:45;22.70;50.30
75738;DHT22;76754;45.638;13.764;2024-03-02T06:54:11;22.80;50.10
75738;DHT22;76754;45.638;13.764;2024-03-02T06:56:37;22.80;49.90
75738;DHT22;76754;45.638;13.764;2024-03-02T06:59:04;22.90;49.80
75738;DHT22;76754;45.638;13.764;2024-03-02T07:01:29;22.90;49.60
75738;DHT22;76754;45.638;13.764;2024-03-02T07:03:55;22.90;48.30
75738;DHT22;76754;45.638;13.764;2024-03-02T07:06:21;22.80;47.60
75738;DHT22;76754;45.638;13.764;2024-03-02T07:08:46;22.70;47.80
75738;DHT22;76754;45.638;13.764;2024-03-02T07:11:12;22.60;47.80
75738;DHT22;76754;45.638;13.764;2024-03-02T07:13:37;22.50;47.80
75738;DHT22;76754;45.638;13.764;2024-03-02T07:16:03;22.40;47.90
75738;DHT22;76754;45.638;13.764;2024-03-02T07:18:29;22.30;48.20
75738;DHT22;76754;45.638;13.764;2024-03-02T07:20:59;22.30;47.90
75738;DHT22;76754;45.638;13.764;2024-03-02T07:23:30;22.20;48.00
75738;DHT22;76754;45.638;13.764;2024-03-02T07:25:57;22.20;48.20
75738;DHT22;76754;45.638;13.764;2024-03-02T07:28:23;22.20;48.70
75738;DHT22;76754;45.638;13.764;2024-03-02T07:30:58;22.20;48.40
75738;DHT22;76754;45.638;13.764;2024-03-02T07:33:24;22.20;48.30
75738;DHT22;76754;45.638;13.764;2024-03-02T07:35:50;22.10;48.20
75738;DHT22;76754;45.638;13.764;2024-03-02T07:38:15;22.10;48.50
75738;DHT22;76754;45.638;13.764;2024-03-02T07:40:42;22.10;48.50
75738;DHT22;76754;45.638;13.764;2024-03-02T07:43:07;22.10;48.30
75738;DHT22;76754;45.638;13.764;2024-03-02T07:45:34;22.10;48.60
75738;DHT22;76754;45.638;13.764;2024-03-02T07:48:01;22.00;48.90
75738;DHT22;76754;45.638;13.764;2024-03-02T07:50:29;22.00;48.50
75738;DHT22;76754;45.638;13.764;2024-03-02T07:52:55;22.00;48.60
75738;DHT22;76754;45.638;13.764;2024-03-02T07:55:21;22.00;48.90
75738;DHT22;76754;45.638;13.764;2024-03-02T07:57:49;22.00;48.70
75738;DHT22;76754;45.638;13.764;2024-03-02T08:00:15;22.00;48.60
75738;DHT22;76754;45.638;13.764;2024-03-02T08:02:41;22.00;49.20
75738;DHT22;76754;45.638;13.764;2024-03-02T08:05:07;22.10;49.70
75738;DHT22;76754;45.638;13.764;2024-03-02T08:07:33;22.20;50.00
75738;DHT22;76754;45.638;13.764;2024-03-02T08:09:59;22.30;49.90
75738;DHT22;76754;45.638;13.764;2024-03-02T08:12:25;22.40;50.40
75738;DHT22;76754;45.638;13.764;2024-03-02T08:14:50;22.50;50.60
75738;DHT22;76754;45.638;13.764;2024-03-02T08:17:16;22.60;50.80
75738;DHT22;76754;45.638;13.764;2024-03-02T08:19:42;22.60;50.60
75738;DHT22;76754;45.638;13.764;2024-03-02T08:22:08;22.70;50.90
75738;DHT22;76754;45.638;13.764;2024-03-02T08:24:34;22.70;51.40
75738;DHT22;76754;45.638;13.764;2024-03-02T08:26:59;22.70;50.80
75738;DHT22;76754;45.638;13.764;2024-03-02T08:29:25;22.80;51.40
75738;DHT22;76754;45.638;13.764;2024-03-02T08:31:51;22.80;51.20
75738;DHT22;76754;45.638;13.764;2024-03-02T08:34:16;22.80;51.00
75738;DHT22;76754;45.638;13.764;2024-03-02T08:36:42;22.80;50.50
75738;DHT22;76754;45.638;13.764;2024-03-02T08:39:08;22.90;50.60
75738;DHT22;76754;45.638;13.764;2024-03-02T08:41:49;22.90;50.60
75738;DHT22;76754;45.638;13.764;2024-03-02T08:44:15;22.90;50.10
75738;DHT22;76754;45.638;13.764;2024-03-02T08:46:40;23.00;50.10
75738;DHT22;76754;45.638;13.764;2024-03-02T08:49:06;23.00;49.90
75738;DHT22;76754;45.638;13.764;2024-03-02T08:51:33;23.00;50.00
75738;DHT22;76754;45.638;13.764;2024-03-02T08:53:59;23.00;49.60
75738;DHT22;76754;45.638;13.764;2024-03-02T08:56:24;23.10;49.80
75738;DHT22;76754;45.638;13.764;2024-03-02T08:58:51;23.10;50.00
75738;DHT22;76754;45.638;13.764;2024-03-02T09:01:16;23.10;49.80
75738;DHT22;76754;45.638;13.764;2024-03-02T09:03:43;23.10;49.60
75738;DHT22;76754;45.638;13.764;2024-03-02T09:06:11;23.20;49.70
75738;DHT22;76754;45.638;13.764;2024-03-02T09:08:37;23.20;49.70
75738;DHT22;76754;45.638;13.764;2024-03-02T09:11:04;23.20;50.60
75738;DHT22;76754;45.638;13.764;2024-03-02T09:13:30;23.20;51.10
75738;DHT22;76754;45.638;13.764;2024-03-02T09:15:55;23.20;50.80
75738;DHT22;76754;45.638;13.764;2024-03-02T09:18:21;23.20;50.50
75738;DHT22;76754;45.638;13.764;2024-03-02T09:20:47;23.20;50.90
75738;DHT22;76754;45.638;13.764;2024-03-02T09:23:13;23.20;50.60
75738;DHT22;76754;45.638;13.764;2024-03-02T09:25:38;23.20;50.30
75738;DHT22;76754;45.638;13.764;2024-03-02T09:28:05;23.20;50.50
75738;DHT22;76754;45.638;13.764;2024-03-02T09:30:31;23.30;50.30
75738;DHT22;76754;45.638;13.764;2024-03-02T09:32:56;23.30;50.20
75738;DHT22;76754;45.638;13.764;2024-03-02T09:35:22;23.30;50.10
75738;DHT22;76754;45.638;13.764;2024-03-02T09:37:48;23.30;49.90
75738;DHT22;76754;45.638;13.764;2024-03-02T09:40:13;23.30;49.80
75738;DHT22;76754;45.638;13.764;2024-03-02T09:42:40;23.30;49.70
75738;DHT22;76754;45.638;13.764;2024-03-02T09:45:06;23.40;49.70
75738;DHT22;76754;45.638;13.764;2024-03-02T09:47:32;23.40;49.60
75738;DHT22;76754;45.638;13.764;2024-03-02T09:49:59;23.40;50.20
75738;DHT22;76754;45.638;13.764;2024-03-02T09:52:24;23.40;49.80
75738;DHT22;76754;45.638;13.764;2024-03-02T09:54:51;23.40;49.60
75738;DHT22;76754;45.638;13.764;2024-03-02T09:57:17;23.50;49.80
75738;DHT22;76754;45.638;13.764;2024-03-02T09:59:43;23.50;50.00
75738;DHT22;76754;45.638;13.764;2024-03-02T10:02:10;23.50;49.80
75738;DHT22;76754;45.638;13.764;2024-03-02T10:04:36;23.50;49.50
75738;DHT22;76754;45.638;13.764;2024-03-02T10:09:40;23.60;49.30
75738;DHT22;76754;45.638;13.764;2024-03-02T10:12:07;23.60;49.40
75738;DHT22;76754;45.638;13.764;2024-03-02T10:14:34;23.60;49.40
75738;DHT22;76754;45.638;13.764;2024-03-02T10:17:03;23.60;49.80
75738;DHT22;76754;45.638;13.764;2024-03-02T10:19:29;23.70;50.20
75738;DHT22;76754;45.638;13.764;2024-03-02T10:21:58;23.70;49.90
75738;DHT22;76754;45.638;13.764;2024-03-02T10:24:24;23.80;47.40
75738;DHT22;76754;45.638;13.764;2024-03-02T10:26:50;23.80;47.20
75738;DHT22;76754;45.638;13.764;2024-03-02T10:29:16;23.80;48.20
75738;DHT22;76754;45.638;13.764;2024-03-02T10:31:43;23.70;48.50
75738;DHT22;76754;45.638;13.764;2024-03-02T10:34:09;23.70;48.60
75738;DHT22;76754;45.638;13.764;2024-03-02T10:36:35;23.70;48.80
75738;DHT22;76754;45.638;13.764;2024-03-02T10:39:02;23.70;48.90
75738;DHT22;76754;45.638;13.764;2024-03-02T10:41:30;23.80;48.90
75738;DHT22;76754;45.638;13.764;2024-03-02T10:43:57;23.80;48.90
75738;DHT22;76754;45.638;13.764;2024-03-02T10:46:29;23.80;49.10
75738;DHT22;76754;45.638;13.764;2024-03-02T10:48:56;23.80;49.60
75738;DHT22;76754;45.638;13.764;2024-03-02T10:51:27;23.80;50.10
75738;DHT22;76754;45.638;13.764;2024-03-02T10:53:54;23.80;50.00
75738;DHT22;76754;45.638;13.764;2024-03-02T10:56:41;23.80;50.30
75738;DHT22;76754;45.638;13.764;2024-03-02T10:59:08;23.80;50.70
75738;DHT22;76754;45.638;13.764;2024-03-02T11:01:35;23.70;50.50
75738;DHT22;76754;45.638;13.764;2024-03-02T11:04:04;23.70;50.70
75738;DHT22;76754;45.638;13.764;2024-03-02T11:06:29;23.60;50.60
75738;DHT22;76754;45.638;13.764;2024-03-02T11:08:59;23.50;50.50
75738;DHT22;76754;45.638;13.764;2024-03-02T11:11:29;23.40;50.50
75738;DHT22;76754;45.638;13.764;2024-03-02T11:13:57;23.40;50.70
75738;DHT22;76754;45.638;13.764;2024-03-02T11:18:50;23.20;51.10
75738;DHT22;76754;45.638;13.764;2024-03-02T11:21:16;23.20;51.00
75738;DHT22;76754;45.638;13.764;2024-03-02T11:23:42;23.10;51.00
75738;DHT22;76754;45.638;13.764;2024-03-02T11:26:20;23.10;50.40
75738;DHT22;76754;45.638;13.764;2024-03-02T11:28:46;23.00;50.70
75738;DHT22;76754;45.638;13.764;2024-03-02T11:31:12;23.00;51.00
75738;DHT22;76754;45.638;13.764;2024-03-02T11:33:38;22.90;51.00
75738;DHT22;76754;45.638;13.764;2024-03-02T11:36:03;22.80;51.30
75738;DHT22;76754;45.638;13.764;2024-03-02T11:38:32;22.80;51.50
75738;DHT22;76754;45.638;13.764;2024-03-02T11:41:02;22.70;51.80
75738;DHT22;76754;45.638;13.764;2024-03-02T11:43:28;22.60;52.10
75738;DHT22;76754;45.638;13.764;2024-03-02T11:45:58;22.60;52.30
75738;DHT22;76754;45.638;13.764;2024-03-02T11:48:24;22.50;52.70
75738;DHT22;76754;45.638;13.764;2024-03-02T11:50:50;22.40;53.20
75738;DHT22;76754;45.638;13.764;2024-03-02T11:53:17;22.40;53.00
75738;DHT22;76754;45.638;13.764;2024-03-02T11:55:43;22.30;53.20
75738;DHT22;76754;45.638;13.764;2024-03-02T11:58:12;22.20;53.00
75738;DHT22;76754;45.638;13.764;2024-03-02T12:00:38;22.20;53.30
75738;DHT22;76754;45.638;13.764;2024-03-02T12:03:04;22.20;53.40
75738;DHT22;76754;45.638;13.764;2024-03-02T12:05:30;22.10;53.60
75738;DHT22;76754;45.638;13.764;2024-03-02T12:07:57;22.00;54.30
75738;DHT22;76754;45.638;13.764;2024-03-02T12:10:23;22.00;54.30
75738;DHT22;76754;45.638;13.764;2024-03-02T12:12:55;22.00;54.10
75738;DHT22;76754;45.638;13.764;2024-03-02T12:15:22;21.90;54.70
75738;DHT22;76754;45.638;13.764;2024-03-02T12:17:48;21.90;55.20
75738;DHT22;76754;45.638;13.764;2024-03-02T12:20:14;21.90;55.50
75738;DHT22;76754;45.638;13.764;2024-03-02T12:22:39;21.90;55.60
75738;DHT22;76754;45.638;13.764;2024-03-02T12:25:05;21.90;55.60
75738;DHT22;76754;45.638;13.764;2024-03-02T12:27:31;21.80;55.60
75738;DHT22;76754;45.638;13.764;2024-03-02T12:29:56;21.80;56.20
75738;DHT22;76754;45.638;13.764;2024-03-02T12:32:22;21.70;56.50
75738;DHT22;76754;45.638;13.764;2024-03-02T12:34:48;21.70;56.60
75738;DHT22;76754;45.638;13.764;2024-03-02T12:37:16;21.70;56.90
75738;DHT22;76754;45.638;13.764;2024-03-02T12:39:44;21.60;56.90
75738;DHT22;76754;45.638;13.764;2024-03-02T12:42:10;21.60;55.80
75738;DHT22;76754;45.638;13.764;2024-03-02T12:44:35;21.50;54.70
75738;DHT22;76754;45.638;13.764;2024-03-02T12:47:02;21.40;56.00
75738;DHT22;76754;45.638;13.764;2024-03-02T12:49:28;21.30;56.70
75738;DHT22;76754;45.638;13.764;2024-03-02T12:51:56;21.30;56.70
75738;DHT22;76754;45.638;13.764;2024-03-02T12:54:23;21.30;56.60
75738;DHT22;76754;45.638;13.764;2024-03-02T12:56:50;21.30;56.70
75738;DHT22;76754;45.638;13.764;2024-03-02T12:59:20;21.30;57.10
75738;DHT22;76754;45.638;13.764;2024-03-02T13:01:53;21.20;57.00
75738;DHT22;76754;45.638;13.764;2024-03-02T13:04:26;21.30;57.20
75738;DHT22;76754;45.638;13.764;2024-03-02T13:06:53;21.20;57.40
75738;DHT22;76754;45.638;13.764;2024-03-02T13:09:21;21.20;57.40
75738;DHT22;76754;45.638;13.764;2024-03-02T13:11:46;21.20;57.40
75738;DHT22;76754;45.638;13.764;2024-03-02T13:14:12;21.20;57.40
75738;DHT22;76754;45.638;13.764;2024-03-02T13:16:38;21.10;57.30
75738;DHT22;76754;45.638;13.764;2024-03-02T13:19:07;21.10;57.70
75738;DHT22;76754;45.638;13.764;2024-03-02T13:21:33;21.10;57.80
75738;DHT22;76754;45.638;13.764;2024-03-02T13:23:59;21.10;57.60
75738;DHT22;76754;45.638;13.764;2024-03-02T13:26:25;21.10;57.80
75738;DHT22;76754;45.638;13.764;2024-03-02T13:28:51;21.10;58.10
75738;DHT22;76754;45.638;13.764;2024-03-02T13:31:17;21.00;58.10
75738;DHT22;76754;45.638;13.764;2024-03-02T13:33:42;21.10;58.30
75738;DHT22;76754;45.638;13.764;2024-03-02T13:36:08;21.10;58.60
75738;DHT22;76754;45.638;13.764;2024-03-02T13:38:35;21.10;58.50
75738;DHT22;76754;45.638;13.764;2024-03-02T13:41:01;21.10;58.50
75738;DHT22;76754;45.638;13.764;2024-03-02T13:43:27;21.10;57.90
75738;DHT22;76754;45.638;13.764;2024-03-02T13:45:53;21.00;58.30
75738;DHT22;76754;45.638;13.764;2024-03-02T13:48:20;21.00;59.40
75738;DHT22;76754;45.638;13.764;2024-03-02T13:50:46;21.00;60.10
75738;DHT22;76754;45.638;13.764;2024-03-02T13:53:12;21.00;60.20
75738;DHT22;76754;45.638;13.764;2024-03-02T13:55:37;21.00;60.60
75738;DHT22;76754;45.638;13.764;2024-03-02T13:58:03;20.90;61.10
75738;DHT22;76754;45.638;13.764;2024-03-02T14:00:29;20.90;61.60
75738;DHT22;76754;45.638;13.764;2024-03-02T14:02:55;20.90;61.70
75738;DHT22;76754;45.638;13.764;2024-03-02T14:05:20;20.90;61.70
75738;DHT22;76754;45.638;13.764;2024-03-02T14:07:46;20.90;62.10
75738;DHT22;76754;45.638;13.764;2024-03-02T14:10:12;20.80;62.50
75738;DHT22;76754;45.638;13.764;2024-03-02T14:12:38;20.80;63.30
75738;DHT22;76754;45.638;13.764;2024-03-02T14:15:03;20.90;63.30
75738;DHT22;76754;45.638;13.764;2024-03-02T14:17:29;20.80;63.00
75738;DHT22;76754;45.638;13.764;2024-03-02T14:19:57;20.80;63.30
75738;DHT22;76754;45.638;13.764;2024-03-02T14:22:24;20.80;63.30
75738;DHT22;76754;45.638;13.764;2024-03-02T14:24:50;20.80;63.00
75738;DHT22;76754;45.638;13.764;2024-03-02T14:27:15;20.70;62.80
75738;DHT22;76754;45.638;13.764;2024-03-02T14:29:44;20.70;63.20
75738;DHT22;76754;45.638;13.764;2024-03-02T14:32:10;20.70;63.30
75738;DHT22;76754;45.638;13.764;2024-03-02T14:34:36;20.70;63.30
75738;DHT22;76754;45.638;13.764;2024-03-02T14:37:02;20.70;63.30
75738;DHT22;76754;45.638;13.764;2024-03-02T14:39:28;20.70;63.40
75738;DHT22;76754;45.638;13.764;2024-03-02T14:41:54;20.60;63.50
75738;DHT22;76754;45.638;13.764;2024-03-02T14:44:21;20.60;63.60
75738;DHT22;76754;45.638;13.764;2024-03-02T14:46:46;20.60;63.50
75738;DHT22;76754;45.638;13.764;2024-03-02T14:49:13;20.60;63.40
75738;DHT22;76754;45.638;13.764;2024-03-02T14:51:38;20.60;63.30
75738;DHT22;76754;45.638;13.764;2024-03-02T14:54:04;20.60;63.30
75738;DHT22;76754;45.638;13.764;2024-03-02T14:56:30;20.50;63.20
75738;DHT22;76754;45.638;13.764;2024-03-02T14:58:56;20.50;63.20
75738;DHT22;76754;45.638;13.764;2024-03-02T15:01:22;20.50;63.30
75738;DHT22;76754;45.638;13.764;2024-03-02T15:03:50;20.50;63.40
75738;DHT22;76754;45.638;13.764;2024-03-02T15:06:16;20.50;63.50
75738;DHT22;76754;45.638;13.764;2024-03-02T15:08:42;20.50;63.60
75738;DHT22;76754;45.638;13.764;2024-03-02T15:11:08;20.50;63.70
75738;DHT22;76754;45.638;13.764;2024-03-02T15:13:34;20.50;63.70
75738;DHT22;76754;45.638;13.764;2024-03-02T15:16:00;20.50;63.70